Terminal Aerodrome Forecast
Issued by NWS

Home | Current Version | Previous Version | Text Only | Print | Product List | Glossary On
Versions: 1 2 3 4 5 6 7 8 9 10 11 12 13 14 15 16
000
FTUS45 KABQ 221735
TAFAEG
TAF
KAEG 221735Z 2218/2318 15009KT P6SM SCT050
     FM222200 12011KT P6SM SCT060
     FM230200 06016G24KT P6SM VCTS BKN070CB
     FM230500 05012KT P6SM BKN080
     FM230900 04008KT P6SM SCT070 SCT120=

USA.gov is the U.S. government's official web portal to all federal, state and local government web resources and services.